Time;durP1;ratioP1;P1;durP2;ratioP2;P2;SDS_P1;SDS_P2;PMS_P1;PMS_P2;Temp;Humidity;BMP_temperature;BMP_pressure;BME280_temperature;BME280_humidity;BME280_pressure;Samples;Min_cycle;Max_cycle;Signal;HPM_P1;HPM_P2
2021/04/06 00:00:27;;;;;;;20.40;3.25;;;2.90;99.90;;;;;;5049615;28;20029;-65
2021/04/06 00:02:56;;;;;;;15.57;2.38;;;2.90;99.90;;;;;;5042898;28;20049;-66
2021/04/06 00:05:24;;;;;;;11.53;0.97;;;3.10;99.90;;;;;;5042710;28;20044;-64
2021/04/06 00:07:51;;;;;;;13.65;2.28;;;3.10;99.90;;;;;;5047534;28;20048;-65
2021/04/06 00:10:25;;;;;;;14.27;1.70;;;3.20;99.90;;;;;;5044746;28;20041;-64
2021/04/06 00:12:53;;;;;;;8.30;2.15;;;3.10;99.90;;;;;;5047761;28;20033;-65
2021/04/06 00:15:20;;;;;;;9.27;1.73;;;3.10;99.90;;;;;;5049934;28;20037;-65
2021/04/06 00:17:47;;;;;;;19.92;2.10;;;3.00;99.90;;;;;;5046235;28;20033;-65
2021/04/06 00:20:16;;;;;;;18.40;3.08;;;3.00;99.90;;;;;;5056574;28;20756;-66
2021/04/06 00:22:43;;;;;;;19.15;3.20;;;2.90;99.90;;;;;;5056822;28;20104;-65
2021/04/06 00:25:13;;;;;;;16.10;1.90;;;2.90;99.90;;;;;;5057399;28;20029;-65
2021/04/06 00:27:42;;;;;;;16.67;2.75;;;2.90;99.90;;;;;;5058747;28;20037;-65
2021/04/06 00:30:10;;;;;;;14.10;1.75;;;2.80;99.90;;;;;;5047434;28;20060;-65
2021/04/06 00:32:37;;;;;;;12.82;2.38;;;2.80;99.90;;;;;;5053281;28;20056;-65
2021/04/06 00:35:05;;;;;;;16.25;2.08;;;2.80;99.90;;;;;;5056903;28;20159;-65
2021/04/06 00:37:35;;;;;;;18.30;2.38;;;2.90;99.90;;;;;;5041490;28;20040;-65
2021/04/06 00:40:10;;;;;;;12.32;2.28;;;3.00;99.90;;;;;;5044064;28;20044;-65
2021/04/06 00:42:38;;;;;;;13.27;2.20;;;3.10;99.90;;;;;;5040272;28;20518;-64
2021/04/06 00:45:18;;;;;;;17.33;3.22;;;3.10;99.90;;;;;;5045868;28;20032;-65
2021/04/06 00:47:45;;;;;;;14.63;2.08;;;3.20;99.90;;;;;;5041072;28;20037;-65
2021/04/06 00:50:14;;;;;;;13.18;2.30;;;3.30;99.90;;;;;;5046187;28;20036;-65
2021/04/06 00:52:44;;;;;;;14.60;1.95;;;3.40;99.90;;;;;;5043216;28;20584;-65
2021/04/06 00:55:18;;;;;;;13.90;2.25;;;3.40;99.90;;;;;;5045176;28;20037;-65
2021/04/06 00:57:44;;;;;;;10.15;1.67;;;3.50;99.90;;;;;;5046224;28;22134;-65
2021/04/06 01:00:11;;;;;;;12.93;1.98;;;3.50;99.90;;;;;;5042478;28;20081;-65
2021/04/06 01:02:37;;;;;;;10.65;1.17;;;3.50;99.90;;;;;;5073231;28;20052;-65
2021/04/06 01:05:07;;;;;;;14.23;1.40;;;3.50;99.90;;;;;;5042399;28;20040;-65
2021/04/06 01:07:34;;;;;;;12.05;1.63;;;3.40;99.90;;;;;;5046737;28;20517;-64
2021/04/06 01:10:01;;;;;;;14.68;1.83;;;3.40;99.90;;;;;;5047620;28;20444;-65
2021/04/06 01:12:28;;;;;;;15.75;1.58;;;3.40;99.90;;;;;;5043084;28;20034;-65
2021/04/06 01:14:55;;;;;;;11.57;2.05;;;3.40;99.90;;;;;;5045053;28;20645;-66
2021/04/06 01:17:27;;;;;;;20.02;2.75;;;3.50;99.90;;;;;;5044695;28;20029;-65
2021/04/06 01:19:52;;;;;;;8.43;1.38;;;3.40;99.90;;;;;;5043554;28;20029;-66
2021/04/06 01:22:19;;;;;;;10.30;1.77;;;3.30;99.90;;;;;;5040005;28;20038;-66
2021/04/06 01:24:46;;;;;;;12.85;2.47;;;3.30;99.90;;;;;;5042272;28;20128;-66
2021/04/06 01:27:15;;;;;;;18.05;1.88;;;3.30;99.90;;;;;;5042046;28;20494;-65
2021/04/06 01:29:47;;;;;;;12.50;2.47;;;3.20;99.90;;;;;;5045947;28;20033;-65
2021/04/06 01:32:13;;;;;;;9.40;1.48;;;3.20;99.90;;;;;;5039634;28;20025;-66
2021/04/06 01:34:40;;;;;;;16.20;2.08;;;3.20;99.90;;;;;;5041258;28;20290;-65
2021/04/06 01:37:06;;;;;;;15.05;2.72;;;3.20;99.90;;;;;;5041346;28;20055;-65
2021/04/06 01:39:33;;;;;;;12.57;1.98;;;3.10;99.90;;;;;;5040292;28;20108;-67
2021/04/06 01:42:02;;;;;;;11.60;2.00;;;3.20;99.90;;;;;;5049574;28;20044;-65
2021/04/06 01:44:29;;;;;;;15.23;2.45;;;3.10;99.90;;;;;;5043095;28;20069;-65
2021/04/06 01:46:55;;;;;;;15.65;1.73;;;3.00;99.90;;;;;;5045774;28;20022;-66
2021/04/06 01:49:21;;;;;;;14.30;2.63;;;3.00;99.90;;;;;;5044689;28;20047;-66
2021/04/06 01:51:48;;;;;;;11.73;1.17;;;2.90;99.90;;;;;;5040615;28;20030;-66
2021/04/06 01:54:16;;;;;;;7.00;1.27;;;2.80;99.90;;;;;;5041725;28;20036;-66
2021/04/06 01:56:53;;;;;;;24.00;2.70;;;2.90;99.90;;;;;;5073005;28;20025;-65
2021/04/06 01:59:24;;;;;;;10.10;1.75;;;2.80;99.90;;;;;;5043987;28;20087;-65
2021/04/06 02:01:55;;;;;;;6.93;1.67;;;2.80;99.90;;;;;;5045342;28;20017;-65
2021/04/06 02:04:23;;;;;;;10.93;1.80;;;2.80;99.90;;;;;;5043394;28;20037;-65
2021/04/06 02:06:53;;;;;;;9.13;1.25;;;2.90;99.90;;;;;;5044935;28;20456;-66
2021/04/06 02:09:20;;;;;;;11.18;1.08;;;3.00;99.90;;;;;;5041763;28;20017;-65
2021/04/06 02:11:46;;;;;;;6.18;1.58;;;2.90;99.90;;;;;;5044216;28;20701;-65
2021/04/06 02:14:13;;;;;;;7.68;1.40;;;3.10;99.90;;;;;;5036905;28;20040;-64
2021/04/06 02:16:44;;;;;;;6.95;1.13;;;3.00;99.90;;;;;;5034991;28;20496;-66
2021/04/06 02:19:30;;;;;;;4.85;1.40;;;2.90;99.90;;;;;;5037591;28;20032;-65
2021/04/06 02:22:00;;;;;;;6.80;0.68;;;2.80;99.90;;;;;;5060968;28;20179;-65
2021/04/06 02:24:30;;;;;;;10.43;1.23;;;2.70;99.90;;;;;;5039960;28;20399;-65
2021/04/06 02:27:10;;;;;;;7.95;1.70;;;2.60;99.90;;;;;;5074399;28;20026;-65
2021/04/06 02:29:42;;;;;;;11.45;1.10;;;2.50;99.90;;;;;;5039996;28;20044;-65
2021/04/06 02:32:19;;;;;;;12.63;1.65;;;2.30;99.90;;;;;;5040580;28;20037;-65
2021/04/06 02:34:47;;;;;;;3.20;0.45;;;2.30;99.90;;;;;;5068518;28;20040;-65
2021/04/06 02:37:20;;;;;;;4.30;0.82;;;2.30;99.90;;;;;;5041257;28;20057;-65
2021/04/06 02:39:47;;;;;;;4.22;0.43;;;2.30;99.90;;;;;;5047770;28;20055;-65
2021/04/06 02:42:31;;;;;;;4.22;0.98;;;2.30;99.90;;;;;;5044091;28;20035;-66
2021/04/06 02:45:14;;;;;;;2.70;0.30;;;2.40;99.90;;;;;;5073505;28;20037;-66
2021/04/06 02:47:42;;;;;;;4.07;0.98;;;2.40;99.90;;;;;;5042373;28;20532;-65
2021/04/06 02:50:13;;;;;;;7.32;0.73;;;2.50;99.90;;;;;;5043385;28;20091;-66
2021/04/06 02:52:40;;;;;;;4.13;0.50;;;2.50;99.90;;;;;;5040835;28;20057;-66
2021/04/06 02:55:08;;;;;;;5.20;1.00;;;2.60;99.90;;;;;;5046427;28;20116;-65
2021/04/06 02:57:38;;;;;;;5.78;0.80;;;2.60;99.90;;;;;;5038583;28;20123;-65
2021/04/06 03:00:04;;;;;;;13.52;1.60;;;2.60;99.90;;;;;;5039634;28;20175;-65
2021/04/06 03:02:38;;;;;;;6.65;0.82;;;2.50;99.90;;;;;;5042708;28;20040;-65
2021/04/06 03:05:04;;;;;;;5.88;1.00;;;2.50;99.90;;;;;;5041740;28;20026;-66
2021/04/06 03:07:29;;;;;;;9.82;0.93;;;2.40;99.90;;;;;;5040039;28;20039;-65
2021/04/06 03:09:59;;;;;;;6.13;0.68;;;2.30;99.90;;;;;;5073778;28;20029;-65
2021/04/06 03:12:30;;;;;;;10.40;1.08;;;2.20;99.90;;;;;;5039856;28;20046;-65
2021/04/06 03:14:57;;;;;;;4.47;0.50;;;2.10;99.90;;;;;;5041309;28;20615;-66
2021/04/06 03:17:24;;;;;;;5.43;0.90;;;2.00;99.90;;;;;;5039236;28;20026;-64
2021/04/06 03:19:58;;;;;;;5.93;1.23;;;2.00;99.90;;;;;;5042862;28;20037;-67
2021/04/06 03:22:25;;;;;;;6.38;1.33;;;2.00;99.90;;;;;;5033925;28;20034;-66
2021/04/06 03:24:51;;;;;;;4.38;0.70;;;1.90;99.90;;;;;;5043032;28;20025;-65
2021/04/06 03:27:27;;;;;;;8.23;0.70;;;1.90;99.90;;;;;;5044501;28;20029;-65
2021/04/06 03:29:52;;;;;;;4.25;0.57;;;1.90;99.90;;;;;;5044143;28;20043;-65
2021/04/06 03:32:18;;;;;;;6.20;0.68;;;1.90;99.90;;;;;;5042084;28;20120;-65
2021/04/06 03:34:44;;;;;;;6.30;0.85;;;1.90;99.90;;;;;;5039460;28;20034;-65
2021/04/06 03:37:09;;;;;;;11.77;1.45;;;1.90;99.90;;;;;;5038532;28;20029;-65
2021/04/06 03:39:36;;;;;;;3.15;0.50;;;1.90;99.90;;;;;;5038891;28;20502;-65
2021/04/06 03:42:02;;;;;;;7.78;1.17;;;2.10;99.90;;;;;;5042864;28;20090;-67
2021/04/06 03:44:30;;;;;;;8.77;0.90;;;2.10;99.90;;;;;;5042550;28;20440;-66
2021/04/06 03:47:05;;;;;;;6.72;0.65;;;2.30;99.90;;;;;;5070477;28;20029;-66
2021/04/06 03:49:32;;;;;;;8.93;0.75;;;2.40;99.90;;;;;;5069267;28;20109;-65
2021/04/06 03:52:05;;;;;;;3.60;0.65;;;2.40;99.90;;;;;;5040569;28;20030;-66
2021/04/06 03:54:34;;;;;;;5.18;0.52;;;2.50;99.90;;;;;;5042337;28;20116;-67
2021/04/06 03:57:19;;;;;;;10.93;0.98;;;2.60;99.90;;;;;;5042723;28;20041;-66
2021/04/06 03:59:44;;;;;;;5.22;0.77;;;2.40;99.90;;;;;;5048330;28;20078;-65
2021/04/06 04:02:10;;;;;;;6.57;1.02;;;2.30;99.90;;;;;;5043231;28;20041;-67
2021/04/06 04:04:37;;;;;;;3.08;0.50;;;2.30;99.90;;;;;;5046113;28;20102;-65
2021/04/06 04:07:03;;;;;;;4.85;1.02;;;2.20;99.90;;;;;;5055231;28;20041;-68
2021/04/06 04:09:29;;;;;;;7.70;0.75;;;2.20;99.90;;;;;;5058405;28;20078;-66
2021/04/06 04:11:54;;;;;;;2.78;0.55;;;2.10;99.90;;;;;;5059039;28;20097;-65
2021/04/06 04:14:20;;;;;;;3.08;1.02;;;2.00;99.90;;;;;;5050129;28;20028;-65
2021/04/06 04:16:45;;;;;;;1.33;0.32;;;1.90;99.90;;;;;;5040367;28;20047;-67
2021/04/06 04:19:11;;;;;;;3.63;0.32;;;1.90;99.90;;;;;;5040523;28;20104;-65
2021/04/06 04:21:37;;;;;;;3.75;0.32;;;1.90;99.90;;;;;;5040338;28;20485;-64
2021/04/06 04:24:03;;;;;;;3.88;0.50;;;2.10;99.90;;;;;;5041465;28;20419;-64
2021/04/06 04:26:29;;;;;;;3.25;0.38;;;2.10;99.90;;;;;;5037881;28;20037;-66
2021/04/06 04:28:54;;;;;;;13.20;1.02;;;2.00;99.90;;;;;;5040637;28;20039;-66
2021/04/06 04:31:20;;;;;;;4.53;0.55;;;2.00;99.90;;;;;;5067976;28;20124;-65
2021/04/06 04:33:46;;;;;;;4.28;1.38;;;1.90;99.90;;;;;;5037009;28;20089;-65
2021/04/06 04:36:11;;;;;;;7.50;0.25;;;1.90;99.90;;;;;;5038736;28;20029;-65
2021/04/06 04:38:37;;;;;;;8.90;0.70;;;1.80;99.90;;;;;;5041074;28;20178;-65
2021/04/06 04:41:02;;;;;;;6.47;0.65;;;1.70;99.90;;;;;;5063319;23;20107;-64
2021/04/06 04:43:28;;;;;;;7.60;0.95;;;1.60;99.90;;;;;;5040256;28;20124;-64
2021/04/06 04:45:54;;;;;;;6.80;1.15;;;1.50;99.90;;;;;;5045755;28;20473;-64
2021/04/06 04:48:19;;;;;;;4.32;0.52;;;1.50;99.90;;;;;;5042273;28;20029;-70
2021/04/06 04:50:45;;;;;;;11.65;1.65;;;1.60;99.90;;;;;;5045004;28;20529;-64
2021/04/06 04:53:11;;;;;;;5.55;0.50;;;1.60;99.90;;;;;;5049982;28;20033;-64
2021/04/06 04:55:36;;;;;;;6.53;0.60;;;1.70;99.90;;;;;;5048840;28;20053;-64
2021/04/06 04:58:02;;;;;;;6.47;0.47;;;1.80;99.90;;;;;;5050952;28;20033;-64
2021/04/06 05:00:27;;;;;;;6.20;0.77;;;1.80;99.90;;;;;;5041864;28;20033;-64
2021/04/06 05:02:53;;;;;;;2.03;0.20;;;1.80;99.90;;;;;;5039254;28;20061;-64
2021/04/06 05:05:19;;;;;;;1.50;0.10;;;1.80;99.90;;;;;;5047917;28;20562;-64
2021/04/06 05:07:45;;;;;;;3.70;0.85;;;1.70;99.90;;;;;;5042220;28;20447;-64
2021/04/06 05:10:15;;;;;;;0.05;0.05;;;1.70;99.90;;;;;;5047022;28;20060;-64
2021/04/06 05:12:41;;;;;;;0.88;0.10;;;1.70;99.90;;;;;;5043639;28;20185;-64
2021/04/06 05:15:09;;;;;;;2.13;0.20;;;1.70;99.90;;;;;;5045686;28;20060;-64
2021/04/06 05:17:35;;;;;;;1.50;0.50;;;1.70;99.90;;;;;;5049134;28;20044;-65
2021/04/06 05:20:01;;;;;;;4.00;0.30;;;1.70;99.90;;;;;;5045695;28;20103;-65
2021/04/06 05:22:27;;;;;;;3.47;0.30;;;1.70;99.90;;;;;;5043651;28;20029;-66
2021/04/06 05:24:52;;;;;;;3.10;0.38;;;1.70;99.90;;;;;;5045151;28;20033;-64
2021/04/06 05:27:18;;;;;;;4.07;0.55;;;1.60;99.90;;;;;;5048611;28;20047;-64
2021/04/06 05:29:44;;;;;;;4.68;0.90;;;1.60;99.90;;;;;;5046866;28;20032;-64
2021/04/06 05:32:09;;;;;;;2.35;0.70;;;1.60;99.90;;;;;;5042945;28;20401;-64
2021/04/06 05:34:35;;;;;;;5.30;0.60;;;1.60;99.90;;;;;;5047106;28;20070;-64
2021/04/06 05:37:01;;;;;;;21.70;1.75;;;1.70;99.90;;;;;;5049677;28;20040;-64
2021/04/06 05:39:26;;;;;;;4.40;0.45;;;1.80;99.90;;;;;;5048222;28;20064;-64
2021/04/06 05:41:52;;;;;;;5.55;0.85;;;1.80;99.90;;;;;;5048790;28;20032;-64
2021/04/06 05:44:18;;;;;;;3.00;0.30;;;1.70;99.90;;;;;;5047845;28;20037;-64
2021/04/06 05:46:49;;;;;;;2.15;0.88;;;1.60;99.90;;;;;;5047122;28;20063;-64
2021/04/06 05:49:24;;;;;;;1.63;0.40;;;1.60;99.90;;;;;;5047447;28;20032;-64
2021/04/06 05:51:50;;;;;;;2.20;0.30;;;1.50;99.90;;;;;;5041541;28;20616;-64
2021/04/06 05:54:16;;;;;;;2.40;0.22;;;1.50;99.90;;;;;;5043202;28;20111;-64
2021/04/06 05:56:43;;;;;;;2.00;0.55;;;1.50;99.90;;;;;;5047133;28;20044;-64
2021/04/06 05:59:09;;;;;;;3.17;0.57;;;1.60;99.90;;;;;;5047276;28;20029;-64
2021/04/06 06:01:38;;;;;;;4.35;0.43;;;1.60;99.90;;;;;;5043618;28;20040;-66
2021/04/06 06:04:09;;;;;;;5.22;0.50;;;1.70;99.90;;;;;;5046499;28;20044;-64
2021/04/06 06:06:35;;;;;;;5.68;0.63;;;1.80;99.90;;;;;;5044369;28;20098;-67
2021/04/06 06:09:03;;;;;;;4.22;0.52;;;1.90;99.90;;;;;;5042430;28;20049;-64
2021/04/06 06:11:28;;;;;;;10.80;1.08;;;2.30;99.90;;;;;;5048026;28;20421;-65
2021/04/06 06:13:55;;;;;;;9.10;1.08;;;2.60;99.90;;;;;;5048245;28;20090;-65
2021/04/06 06:16:22;;;;;;;8.38;0.90;;;2.70;99.90;;;;;;5048442;28;20098;-65
2021/04/06 06:19:00;;;;;;;1.75;0.38;;;2.50;99.90;;;;;;5044748;28;20059;-65
2021/04/06 06:21:49;;;;;;;6.55;0.50;;;2.40;99.90;;;;;;5046826;28;20040;-64
2021/04/06 06:24:26;;;;;;;7.90;1.20;;;2.20;99.90;;;;;;5060089;28;20037;-64
2021/04/06 06:26:52;;;;;;;3.58;0.50;;;2.20;99.90;;;;;;5048508;28;20040;-65
2021/04/06 06:29:21;;;;;;;6.07;0.93;;;2.10;99.90;;;;;;5045229;28;20175;-65
2021/04/06 06:31:53;;;;;;;3.55;0.47;;;2.60;99.90;;;;;;5046491;28;20029;-65
2021/04/06 06:34:36;;;;;;;6.93;0.80;;;3.90;99.90;;;;;;5046864;28;20404;-65
2021/04/06 06:37:28;;;;;;;8.50;0.95;;;5.30;99.90;;;;;;5046003;28;20037;-66
2021/04/06 06:39:54;;;;;;;3.72;0.50;;;5.80;99.90;;;;;;5039379;28;20076;-64
2021/04/06 06:42:39;;;;;;;8.25;0.75;;;5.80;99.90;;;;;;5047636;28;20076;-65
2021/04/06 06:45:21;;;;;;;3.53;0.55;;;5.60;99.90;;;;;;5042559;28;20033;-65
2021/04/06 06:47:55;;;;;;;2.65;0.50;;;5.40;99.90;;;;;;5042632;28;20061;-64
2021/04/06 06:50:20;;;;;;;4.38;1.00;;;5.00;99.90;;;;;;5044140;28;20381;-64
2021/04/06 06:52:52;;;;;;;11.73;2.35;;;4.60;99.90;;;;;;5046633;28;20033;-65
2021/04/06 06:55:19;;;;;;;3.05;0.35;;;4.10;99.90;;;;;;5044431;28;20048;-64
2021/04/06 06:57:45;;;;;;;6.20;0.88;;;3.40;99.90;;;;;;5044747;28;20043;-64
2021/04/06 07:00:15;;;;;;;4.82;1.40;;;2.90;99.90;;;;;;5046776;28;20123;-64
2021/04/06 07:02:41;;;;;;;6.90;1.03;;;2.70;99.90;;;;;;5043562;28;20044;-64
2021/04/06 07:05:22;;;;;;;3.22;0.80;;;2.40;99.90;;;;;;5066300;28;20036;-64
2021/04/06 07:08:03;;;;;;;1.30;0.77;;;2.40;99.90;;;;;;5045739;28;20068;-64
2021/04/06 07:10:36;;;;;;;2.72;0.40;;;2.30;99.90;;;;;;5046044;28;20048;-65
2021/04/06 07:13:07;;;;;;;4.35;0.68;;;2.30;99.90;;;;;;5044901;28;20033;-65
2021/04/06 07:15:36;;;;;;;4.95;0.60;;;2.30;99.90;;;;;;5042474;28;20116;-64
2021/04/06 07:18:06;;;;;;;6.72;0.68;;;2.30;99.90;;;;;;5048306;28;20037;-64
2021/04/06 07:20:39;;;;;;;8.50;0.85;;;2.40;99.90;;;;;;5042518;28;20144;-65
2021/04/06 07:23:08;;;;;;;8.35;0.90;;;2.70;99.90;;;;;;5042876;28;20060;-65
2021/04/06 07:25:34;;;;;;;5.50;1.10;;;3.00;99.90;;;;;;5046489;28;20060;-64
2021/04/06 07:28:02;;;;;;;5.18;0.65;;;3.50;99.90;;;;;;5042235;28;20045;-64
2021/04/06 07:30:27;;;;;;;9.35;0.82;;;3.80;99.90;;;;;;5043809;28;20037;-65
2021/04/06 07:32:55;;;;;;;4.43;0.95;;;3.90;99.90;;;;;;5046888;28;20505;-64
2021/04/06 07:35:20;;;;;;;3.40;0.52;;;3.90;99.90;;;;;;5046796;28;20497;-65
2021/04/06 07:37:47;;;;;;;3.58;1.13;;;3.90;99.90;;;;;;5046645;28;20037;-65
2021/04/06 07:40:16;;;;;;;8.82;1.40;;;3.90;99.90;;;;;;5043272;28;20037;-64
2021/04/06 07:42:44;;;;;;;5.38;0.52;;;3.90;99.90;;;;;;5043993;28;20039;-65
2021/04/06 07:45:22;;;;;;;3.42;1.00;;;4.00;99.90;;;;;;5047386;28;20382;-65
2021/04/06 07:47:49;;;;;;;8.75;1.63;;;4.10;99.90;;;;;;5044342;28;20048;-64
2021/04/06 07:50:32;;;;;;;8.90;2.05;;;4.20;99.90;;;;;;5046283;28;20017;-65
2021/04/06 07:53:24;;;;;;;6.95;1.67;;;4.50;99.90;;;;;;5042790;28;20051;-65
2021/04/06 07:55:50;;;;;;;5.90;1.40;;;4.70;99.90;;;;;;5044989;28;20029;-64
2021/04/06 07:58:51;;;;;;;9.55;2.47;;;4.90;99.90;;;;;;5046453;28;20037;-65
2021/04/06 08:01:27;;;;;;;10.48;1.38;;;5.10;99.90;;;;;;5043730;28;20461;-65
2021/04/06 08:03:53;;;;;;;6.82;1.08;;;5.30;99.90;;;;;;5041100;28;20075;-70
2021/04/06 08:06:20;;;;;;;10.18;1.67;;;5.20;99.90;;;;;;5046926;28;20058;-65
2021/04/06 08:08:46;;;;;;;6.18;2.25;;;5.20;99.90;;;;;;5053072;28;20049;-64
2021/04/06 08:11:12;;;;;;;5.50;1.08;;;5.20;99.90;;;;;;5045100;28;20041;-65
2021/04/06 08:13:38;;;;;;;4.53;1.55;;;5.40;99.90;;;;;;5045722;28;20037;-65
2021/04/06 08:16:11;;;;;;;7.05;1.00;;;5.60;99.90;;;;;;5044416;28;20033;-64
2021/04/06 08:18:54;;;;;;;8.80;1.40;;;5.70;99.90;;;;;;5041160;28;20087;-65
2021/04/06 08:21:25;;;;;;;10.90;1.50;;;5.80;99.90;;;;;;5044797;28;20031;-65
2021/04/06 08:23:52;;;;;;;7.85;0.80;;;5.90;99.90;;;;;;5050500;28;20037;-64
2021/04/06 08:26:43;;;;;;;6.97;0.50;;;6.10;99.90;;;;;;5046825;28;20068;-64
2021/04/06 08:29:27;;;;;;;8.82;1.02;;;6.30;99.90;;;;;;5059628;28;20041;-65
2021/04/06 08:32:13;;;;;;;4.93;1.27;;;6.60;99.90;;;;;;5049961;28;20400;-65
2021/04/06 08:35:08;;;;;;;1.85;0.50;;;6.90;99.90;;;;;;5047884;28;20043;-64
2021/04/06 08:37:37;;;;;;;5.43;0.70;;;7.00;99.90;;;;;;5040058;28;20440;-65
2021/04/06 08:40:05;;;;;;;5.63;0.60;;;6.90;99.90;;;;;;5046680;28;20562;-64
2021/04/06 08:42:32;;;;;;;3.45;1.15;;;6.60;99.90;;;;;;5046661;28;20071;-65
2021/04/06 08:44:59;;;;;;;1.40;0.28;;;6.20;99.90;;;;;;5050051;28;20029;-65
2021/04/06 08:47:43;;;;;;;4.03;0.55;;;5.90;99.90;;;;;;5048579;28;20025;-65
2021/04/06 08:50:15;;;;;;;6.68;0.55;;;5.90;99.90;;;;;;5048898;28;20040;-69
2021/04/06 08:52:41;;;;;;;3.65;0.40;;;5.80;99.90;;;;;;5047835;28;20047;-64
2021/04/06 08:55:13;;;;;;;6.35;0.55;;;5.90;99.90;;;;;;5049361;28;20045;-65
2021/04/06 08:57:39;;;;;;;3.45;0.40;;;6.00;99.90;;;;;;5047031;28;20041;-65
2021/04/06 09:00:11;;;;;;;4.85;0.50;;;6.20;99.90;;;;;;5048490;28;20406;-65
2021/04/06 09:02:36;;;;;;;3.92;0.40;;;6.60;99.90;;;;;;5045729;28;20045;-64
2021/04/06 09:05:03;;;;;;;2.72;0.30;;;6.60;99.90;;;;;;5049175;28;20029;-65
2021/04/06 09:07:37;;;;;;;8.00;0.85;;;6.20;99.90;;;;;;5042336;28;20108;-64
2021/04/06 09:10:11;;;;;;;5.65;0.55;;;5.80;99.90;;;;;;5046239;28;20048;-64
2021/04/06 09:12:43;;;;;;;3.20;0.55;;;5.40;99.90;;;;;;5047799;28;20033;-65
2021/04/06 09:15:11;;;;;;;5.15;0.60;;;5.20;99.90;;;;;;5044567;28;20045;-64
2021/04/06 09:17:38;;;;;;;5.35;0.30;;;5.20;99.90;;;;;;5047481;28;20044;-65
2021/04/06 09:20:13;;;;;;;4.97;1.02;;;5.40;99.90;;;;;;5048070;28;20040;-64
2021/04/06 09:22:40;;;;;;;10.82;2.35;;;5.60;99.90;;;;;;5049643;28;20033;-64
2021/04/06 09:25:17;;;;;;;2.92;0.75;;;5.90;99.90;;;;;;5043406;28;20084;-64
2021/04/06 09:27:54;;;;;;;4.22;0.98;;;6.30;99.90;;;;;;5047063;28;20033;-64
2021/04/06 09:30:31;;;;;;;4.70;0.70;;;6.80;99.90;;;;;;5047088;28;20145;-65
2021/04/06 09:33:06;;;;;;;6.20;0.65;;;6.90;99.90;;;;;;5045379;28;20116;-64
2021/04/06 09:35:31;;;;;;;4.70;0.50;;;6.40;99.90;;;;;;5046480;28;20032;-64
2021/04/06 09:37:58;;;;;;;5.03;0.68;;;6.00;99.90;;;;;;5046735;28;20029;-65
2021/04/06 09:40:36;;;;;;;5.95;1.10;;;5.80;99.90;;;;;;5049798;28;20098;-65
2021/04/06 09:43:03;;;;;;;4.78;0.43;;;5.50;99.90;;;;;;5046683;28;20836;-65
2021/04/06 09:45:29;;;;;;;1.85;0.85;;;5.10;99.90;;;;;;5049163;28;20094;-64
2021/04/06 09:47:55;;;;;;;0.95;0.20;;;4.70;99.90;;;;;;5043617;28;20033;-64
2021/04/06 09:50:22;;;;;;;1.45;0.10;;;4.50;99.90;;;;;;5046445;28;20431;-65
2021/04/06 09:52:48;;;;;;;2.42;0.20;;;4.50;99.90;;;;;;5042084;28;20032;-65
2021/04/06 09:55:14;;;;;;;1.08;0.13;;;4.50;99.90;;;;;;5046133;28;20512;-64
2021/04/06 09:57:43;;;;;;;3.50;0.50;;;4.50;99.90;;;;;;5049170;28;20037;-64
2021/04/06 10:00:15;;;;;;;1.05;0.43;;;4.60;99.90;;;;;;5044626;28;20051;-64
2021/04/06 10:02:42;;;;;;;1.13;0.10;;;4.80;99.90;;;;;;5047608;28;20047;-65
2021/04/06 10:05:18;;;;;;;0.73;0.10;;;4.90;99.90;;;;;;5039856;28;20046;-65
2021/04/06 10:07:46;;;;;;;1.80;0.10;;;5.20;99.90;;;;;;5046679;28;20045;-66
2021/04/06 10:10:30;;;;;;;2.05;0.10;;;5.40;99.90;;;;;;5044398;28;20033;-64
2021/04/06 10:12:58;;;;;;;3.20;0.20;;;5.60;99.90;;;;;;5044450;28;20041;-65
2021/04/06 10:15:27;;;;;;;3.58;0.60;;;6.00;99.90;;;;;;5045240;28;20716;-65
2021/04/06 10:17:54;;;;;;;2.88;0.20;;;6.30;99.90;;;;;;5040815;28;20048;-65
2021/04/06 10:20:38;;;;;;;2.05;0.63;;;6.00;99.90;;;;;;5040350;28;20033;-65
2021/04/06 10:23:04;;;;;;;3.78;0.60;;;5.70;99.90;;;;;;5044851;28;20060;-65
2021/04/06 10:25:45;;;;;;;2.53;0.60;;;5.40;99.90;;;;;;5047342;28;20490;-65
2021/04/06 10:28:25;;;;;;;1.30;0.60;;;5.10;99.90;;;;;;5046867;28;20174;-65
2021/04/06 10:30:56;;;;;;;2.50;0.30;;;5.20;99.90;;;;;;5042670;28;20505;-65
2021/04/06 10:33:28;;;;;;;0.82;0.20;;;5.30;99.90;;;;;;5044309;28;20713;-65
2021/04/06 10:36:07;;;;;;;6.68;0.57;;;5.40;99.90;;;;;;5041257;28;20044;-65
2021/04/06 10:38:39;;;;;;;0.98;0.30;;;5.60;99.90;;;;;;5046498;28;20124;-64
2021/04/06 10:41:09;;;;;;;2.40;0.38;;;5.70;99.90;;;;;;5048283;22;20045;-65
2021/04/06 10:43:36;;;;;;;3.60;0.65;;;5.70;99.90;;;;;;5015028;28;20125;-65
2021/04/06 10:46:09;;;;;;;2.78;0.55;;;5.80;99.90;;;;;;5040997;28;20094;-65
2021/04/06 10:48:38;;;;;;;1.02;0.10;;;5.90;99.90;;;;;;5039338;28;20048;-65
2021/04/06 10:51:08;;;;;;;1.48;0.25;;;6.10;99.90;;;;;;5016264;28;20037;-66
2021/04/06 10:53:41;;;;;;;1.17;0.10;;;6.00;99.90;;;;;;5016600;28;20386;-65
2021/04/06 10:56:13;;;;;;;1.65;0.40;;;6.10;99.90;;;;;;5016204;28;20048;-65
2021/04/06 10:58:50;;;;;;;0.55;0.15;;;6.20;99.90;;;;;;5016956;28;20033;-65
2021/04/06 11:01:20;;;;;;;7.57;0.40;;;6.30;99.90;;;;;;5010746;28;20064;-66
2021/04/06 11:03:49;;;;;;;5.65;0.38;;;6.40;99.90;;;;;;5021250;28;20046;-66
2021/04/06 11:06:26;;;;;;;6.50;0.88;;;6.60;99.90;;;;;;5016653;28;20045;-65
2021/04/06 11:08:53;;;;;;;3.42;0.45;;;6.80;99.90;;;;;;5017520;28;20034;-65
2021/04/06 11:11:26;;;;;;;4.28;0.60;;;6.90;99.20;;;;;;5017929;28;20506;-66
2021/04/06 11:13:53;;;;;;;5.05;1.70;;;7.00;99.90;;;;;;5015728;28;20551;-65
2021/04/06 11:16:19;;;;;;;6.70;0.63;;;6.40;99.90;;;;;;5000084;28;20045;-65
2021/04/06 11:19:00;;;;;;;2.00;0.50;;;6.00;99.90;;;;;;5014023;28;20529;-65
2021/04/06 11:21:26;;;;;;;5.07;0.40;;;5.30;99.90;;;;;;5017544;28;20029;-64
2021/04/06 11:23:52;;;;;;;2.05;0.25;;;4.70;99.90;;;;;;5015545;28;20041;-64
2021/04/06 11:26:18;;;;;;;3.80;0.82;;;4.30;99.90;;;;;;5019197;28;20446;-64
2021/04/06 11:28:44;;;;;;;4.85;0.60;;;4.00;99.90;;;;;;5018478;28;20034;-64
2021/04/06 11:31:11;;;;;;;0.28;0.08;;;4.00;99.90;;;;;;5019069;28;20033;-64
2021/04/06 11:33:36;;;;;;;5.03;0.20;;;4.00;99.90;;;;;;5019862;28;20494;-64
2021/04/06 11:36:02;;;;;;;0.85;0.15;;;4.10;99.90;;;;;;5011113;28;20044;-64
2021/04/06 11:38:28;;;;;;;5.63;1.10;;;4.10;99.90;;;;;;5016761;28;20041;-64
2021/04/06 11:40:53;;;;;;;1.38;0.00;;;4.30;99.90;;;;;;5015655;28;20050;-65
2021/04/06 11:43:19;;;;;;;3.50;0.40;;;4.60;99.90;;;;;;5018420;28;20061;-65
2021/04/06 11:45:45;;;;;;;3.92;0.68;;;4.90;99.90;;;;;;5024461;28;20222;-65
2021/04/06 11:48:10;;;;;;;0.70;0.17;;;5.30;99.90;;;;;;4998707;28;20119;-64
2021/04/06 11:50:36;;;;;;;7.30;1.00;;;5.50;99.90;;;;;;5004166;28;20077;-65
2021/04/06 11:53:02;;;;;;;4.38;0.85;;;5.60;99.90;;;;;;5018021;28;20156;-65
2021/04/06 11:55:28;;;;;;;2.92;0.40;;;5.70;99.90;;;;;;5021818;28;20171;-65
2021/04/06 11:57:53;;;;;;;3.83;0.35;;;5.90;99.90;;;;;;5023263;28;20111;-65
2021/04/06 12:00:19;;;;;;;6.63;0.70;;;6.00;99.90;;;;;;5019083;28;20037;-65
2021/04/06 12:02:45;;;;;;;3.65;0.38;;;6.30;99.90;;;;;;5021351;28;20053;-65
2021/04/06 12:05:12;;;;;;;2.42;0.55;;;6.50;99.90;;;;;;5018477;28;20639;-65
2021/04/06 12:07:37;;;;;;;3.17;0.63;;;6.70;99.90;;;;;;5022989;28;20510;-65
2021/04/06 12:10:04;;;;;;;3.03;0.38;;;6.80;99.90;;;;;;5020390;28;20038;-65
2021/04/06 12:12:30;;;;;;;2.42;0.20;;;7.10;99.90;;;;;;5021590;28;20600;-65
2021/04/06 12:14:56;;;;;;;4.07;0.70;;;7.00;99.90;;;;;;5022691;28;20108;-65
2021/04/06 12:17:21;;;;;;;5.18;1.40;;;6.60;99.90;;;;;;5021206;28;20064;-64
2021/04/06 12:19:47;;;;;;;6.05;0.98;;;6.20;99.90;;;;;;5019290;28;20481;-65
2021/04/06 12:22:12;;;;;;;9.18;1.33;;;6.10;99.90;;;;;;5023114;28;20034;-65
2021/04/06 12:24:38;;;;;;;9.82;0.80;;;6.10;99.90;;;;;;5019787;28;20025;-65
2021/04/06 12:27:05;;;;;;;4.55;0.60;;;6.50;99.90;;;;;;5020647;28;20029;-65
2021/04/06 12:29:30;;;;;;;3.72;0.88;;;6.80;99.90;;;;;;5021144;28;20045;-64
2021/04/06 12:31:56;;;;;;;9.88;1.10;;;6.60;99.90;;;;;;5025346;28;20033;-65
2021/04/06 12:34:22;;;;;;;4.85;0.95;;;6.10;99.90;;;;;;5029416;28;20500;-67
2021/04/06 12:36:48;;;;;;;1.63;0.63;;;5.50;99.90;;;;;;5040227;28;20065;-65
2021/04/06 12:39:13;;;;;;;1.63;0.30;;;5.20;99.90;;;;;;5027529;28;20025;-65
2021/04/06 12:41:39;;;;;;;3.95;0.40;;;5.10;99.90;;;;;;5030236;28;20164;-65
2021/04/06 12:44:04;;;;;;;1.85;0.30;;;5.20;99.90;;;;;;5024760;28;20038;-65
2021/04/06 12:46:30;;;;;;;4.32;0.80;;;5.30;99.90;;;;;;5021763;28;20265;-65
2021/04/06 12:48:56;;;;;;;4.00;1.00;;;5.30;99.90;;;;;;5019562;28;20067;-65
2021/04/06 12:51:22;;;;;;;1.83;0.17;;;5.40;99.90;;;;;;5022182;28;20487;-65
2021/04/06 12:53:47;;;;;;;3.30;0.32;;;5.60;99.90;;;;;;5022520;28;20055;-65
2021/04/06 12:56:13;;;;;;;3.35;0.30;;;5.70;99.90;;;;;;5019573;28;20033;-66
2021/04/06 12:58:38;;;;;;;0.90;0.38;;;5.60;99.90;;;;;;5020884;28;20153;-65
2021/04/06 13:01:04;;;;;;;7.13;0.38;;;5.60;99.90;;;;;;5020396;28;20034;-65
2021/04/06 13:03:30;;;;;;;2.45;0.57;;;5.60;99.90;;;;;;5024488;28;20564;-65
2021/04/06 13:05:55;;;;;;;2.38;0.95;;;5.60;99.90;;;;;;5019457;28;20038;-65